sensor_id;sensor_type;location;lat;lon;timestamp;pressure;altitude;pressure_sealevel;temperature;humidity
50867;BME280;36839;51.946;21.002;2022-08-23T00:00:31;99877.42;;;18.40;100.00
50867;BME280;36839;51.946;21.002;2022-08-23T00:03:01;99879.87;;;18.41;100.00
50867;BME280;36839;51.946;21.002;2022-08-23T00:05:32;99879.87;;;18.41;100.00
50867;BME280;36839;51.946;21.002;2022-08-23T00:08:00;99870.42;;;18.48;100.00
50867;BME280;36839;51.946;21.002;2022-08-23T00:10:27;99864.63;;;18.53;100.00
50867;BME280;36839;51.946;21.002;2022-08-23T00:12:56;99894.66;;;18.59;100.00
50867;BME280;36839;51.946;21.002;2022-08-23T00:15:22;99887.91;;;18.60;100.00
50867;BME280;36839;51.946;21.002;2022-08-23T00:17:49;99889.41;;;18.58;100.00
50867;BME280;36839;51.946;21.002;2022-08-23T00:20:17;99880.74;;;18.56;100.00
50867;BME280;36839;51.946;21.002;2022-08-23T00:22:47;99880.74;;;18.56;100.00
50867;BME280;36839;51.946;21.002;2022-08-23T00:25:16;99872.77;;;18.61;100.00
50867;BME280;36839;51.946;21.002;2022-08-23T00:27:46;99886.19;;;18.70;100.00
50867;BME280;36839;51.946;21.002;2022-08-23T00:30:17;99886.19;;;18.70;100.00
50867;BME280;36839;51.946;21.002;2022-08-23T00:32:48;99897.94;;;18.78;100.00
50867;BME280;36839;51.946;21.002;2022-08-23T00:35:16;99903.88;;;18.77;100.00
50867;BME280;36839;51.946;21.002;2022-08-23T00:37:43;99915.65;;;18.76;100.00
50867;BME280;36839;51.946;21.002;2022-08-23T00:40:13;99923.70;;;18.78;100.00
50867;BME280;36839;51.946;21.002;2022-08-23T00:42:59;99924.52;;;18.78;100.00
50867;BME280;36839;51.946;21.002;2022-08-23T00:46:02;99929.78;;;18.80;100.00
50867;BME280;36839;51.946;21.002;2022-08-23T00:48:46;99929.78;;;18.80;100.00
50867;BME280;36839;51.946;21.002;2022-08-23T00:51:20;99927.47;;;18.82;100.00
50867;BME280;36839;51.946;21.002;2022-08-23T00:53:51;99921.61;;;18.90;100.00
50867;BME280;36839;51.946;21.002;2022-08-23T00:56:22;99921.52;;;18.92;100.00
50867;BME280;36839;51.946;21.002;2022-08-23T00:58:56;99930.08;;;18.96;100.00
50867;BME280;36839;51.946;21.002;2022-08-23T01:01:25;99929.27;;;18.95;100.00
50867;BME280;36839;51.946;21.002;2022-08-23T01:03:55;99921.69;;;18.96;100.00
50867;BME280;36839;51.946;21.002;2022-08-23T01:06:31;99922.58;;;18.94;100.00
50867;BME280;36839;51.946;21.002;2022-08-23T01:09:08;99919.13;;;18.97;100.00
50867;BME280;36839;51.946;21.002;2022-08-23T01:11:52;99923.57;;;18.98;100.00
50867;BME280;36839;51.946;21.002;2022-08-23T01:14:15;99923.57;;;18.98;100.00
50867;BME280;36839;51.946;21.002;2022-08-23T01:16:52;99905.42;;;19.04;100.00
50867;BME280;36839;51.946;21.002;2022-08-23T01:19:27;99912.69;;;19.05;100.00
50867;BME280;36839;51.946;21.002;2022-08-23T01:24:25;99908.66;;;19.00;100.00
50867;BME280;36839;51.946;21.002;2022-08-23T01:26:52;99900.02;;;18.99;100.00
50867;BME280;36839;51.946;21.002;2022-08-23T01:29:25;99892.88;;;18.95;100.00
50867;BME280;36839;51.946;21.002;2022-08-23T01:31:53;99895.03;;;18.90;100.00
50867;BME280;36839;51.946;21.002;2022-08-23T01:34:26;99901.34;;;18.93;100.00
50867;BME280;36839;51.946;21.002;2022-08-23T01:36:56;99897.97;;;18.93;100.00
50867;BME280;36839;51.946;21.002;2022-08-23T01:39:26;99901.92;;;18.92;100.00
50867;BME280;36839;51.946;21.002;2022-08-23T01:41:54;99901.92;;;18.92;100.00
50867;BME280;36839;51.946;21.002;2022-08-23T01:44:23;99908.82;;;18.95;100.00
50867;BME280;36839;51.946;21.002;2022-08-23T01:46:51;99887.89;;;18.86;100.00
50867;BME280;36839;51.946;21.002;2022-08-23T01:49:19;99885.17;;;18.75;100.00
50867;BME280;36839;51.946;21.002;2022-08-23T01:51:46;99885.17;;;18.75;100.00
50867;BME280;36839;51.946;21.002;2022-08-23T01:54:13;99886.33;;;18.74;100.00
50867;BME280;36839;51.946;21.002;2022-08-23T01:56:40;99890.14;;;18.69;100.00
50867;BME280;36839;51.946;21.002;2022-08-23T01:59:10;99899.12;;;18.69;100.00
50867;BME280;36839;51.946;21.002;2022-08-23T02:01:42;99905.42;;;18.63;100.00
50867;BME280;36839;51.946;21.002;2022-08-23T02:04:08;99915.45;;;18.64;100.00
50867;BME280;36839;51.946;21.002;2022-08-23T02:06:39;99917.36;;;18.66;100.00
50867;BME280;36839;51.946;21.002;2022-08-23T02:09:07;99912.75;;;18.62;100.00
50867;BME280;36839;51.946;21.002;2022-08-23T02:11:37;99918.68;;;18.60;100.00
50867;BME280;36839;51.946;21.002;2022-08-23T02:14:10;99913.73;;;18.57;100.00
50867;BME280;36839;51.946;21.002;2022-08-23T02:16:41;99913.73;;;18.57;100.00
50867;BME280;36839;51.946;21.002;2022-08-23T02:19:10;99903.31;;;18.43;100.00
50867;BME280;36839;51.946;21.002;2022-08-23T02:21:39;99892.71;;;18.34;100.00
50867;BME280;36839;51.946;21.002;2022-08-23T02:24:16;99891.65;;;18.32;100.00
50867;BME280;36839;51.946;21.002;2022-08-23T02:26:45;99891.65;;;18.32;100.00
50867;BME280;36839;51.946;21.002;2022-08-23T02:29:14;99885.39;;;18.26;100.00
50867;BME280;36839;51.946;21.002;2022-08-23T02:31:47;99885.39;;;18.26;100.00
50867;BME280;36839;51.946;21.002;2022-08-23T02:34:16;99878.64;;;18.27;100.00
50867;BME280;36839;51.946;21.002;2022-08-23T02:36:44;99884.17;;;18.30;100.00
50867;BME280;36839;51.946;21.002;2022-08-23T02:39:14;99879.16;;;18.30;100.00
50867;BME280;36839;51.946;21.002;2022-08-23T02:41:43;99876.09;;;18.28;100.00
50867;BME280;36839;51.946;21.002;2022-08-23T02:44:11;99871.98;;;18.26;100.00
50867;BME280;36839;51.946;21.002;2022-08-23T02:46:41;99871.98;;;18.26;100.00
50867;BME280;36839;51.946;21.002;2022-08-23T02:49:09;99875.21;;;18.22;100.00
50867;BME280;36839;51.946;21.002;2022-08-23T02:51:39;99875.78;;;18.21;100.00
50867;BME280;36839;51.946;21.002;2022-08-23T02:54:08;99870.44;;;18.22;100.00
50867;BME280;36839;51.946;21.002;2022-08-23T02:56:36;99878.49;;;18.24;100.00
50867;BME280;36839;51.946;21.002;2022-08-23T02:59:05;99878.49;;;18.24;100.00
50867;BME280;36839;51.946;21.002;2022-08-23T03:01:35;99871.02;;;18.22;100.00
50867;BME280;36839;51.946;21.002;2022-08-23T03:04:06;99869.28;;;18.23;100.00
50867;BME280;36839;51.946;21.002;2022-08-23T03:06:38;99871.84;;;18.22;100.00
50867;BME280;36839;51.946;21.002;2022-08-23T03:09:07;99861.23;;;18.22;100.00
50867;BME280;36839;51.946;21.002;2022-08-23T03:11:34;99862.45;;;18.18;100.00
50867;BME280;36839;51.946;21.002;2022-08-23T03:14:07;99862.88;;;18.14;100.00
50867;BME280;36839;51.946;21.002;2022-08-23T03:16:33;99863.36;;;18.16;100.00
50867;BME280;36839;51.946;21.002;2022-08-23T03:18:59;99868.04;;;18.18;100.00
50867;BME280;36839;51.946;21.002;2022-08-23T03:21:28;99874.15;;;18.20;100.00
50867;BME280;36839;51.946;21.002;2022-08-23T03:24:01;99880.80;;;18.22;100.00
50867;BME280;36839;51.946;21.002;2022-08-23T03:26:27;99881.72;;;18.20;100.00
50867;BME280;36839;51.946;21.002;2022-08-23T03:28:56;99881.72;;;18.20;100.00
50867;BME280;36839;51.946;21.002;2022-08-23T03:31:22;99871.41;;;18.18;100.00
50867;BME280;36839;51.946;21.002;2022-08-23T03:33:48;99871.41;;;18.18;100.00
50867;BME280;36839;51.946;21.002;2022-08-23T03:36:17;99871.27;;;18.14;100.00
50867;BME280;36839;51.946;21.002;2022-08-23T03:38:46;99884.51;;;18.20;100.00
50867;BME280;36839;51.946;21.002;2022-08-23T03:41:18;99891.22;;;18.19;100.00
50867;BME280;36839;51.946;21.002;2022-08-23T03:43:44;99890.16;;;18.17;100.00
50867;BME280;36839;51.946;21.002;2022-08-23T03:46:14;99894.35;;;18.17;100.00
50867;BME280;36839;51.946;21.002;2022-08-23T03:48:43;99890.98;;;18.18;100.00
50867;BME280;36839;51.946;21.002;2022-08-23T03:51:10;99891.80;;;18.18;100.00
50867;BME280;36839;51.946;21.002;2022-08-23T03:53:40;99883.99;;;18.18;100.00
50867;BME280;36839;51.946;21.002;2022-08-23T03:58:58;99885.09;;;18.19;100.00
50867;BME280;36839;51.946;21.002;2022-08-23T04:01:26;99894.69;;;18.16;100.00
50867;BME280;36839;51.946;21.002;2022-08-23T04:03:55;99894.69;;;18.16;100.00
50867;BME280;36839;51.946;21.002;2022-08-23T04:06:25;99883.17;;;18.17;100.00
50867;BME280;36839;51.946;21.002;2022-08-23T04:08:56;99891.22;;;18.19;100.00
50867;BME280;36839;51.946;21.002;2022-08-23T04:11:25;99883.27;;;18.23;100.00
50867;BME280;36839;51.946;21.002;2022-08-23T04:13:55;99882.26;;;18.28;100.00
50867;BME280;36839;51.946;21.002;2022-08-23T04:16:23;99882.26;;;18.28;100.00
50867;BME280;36839;51.946;21.002;2022-08-23T04:18:55;99881.43;;;18.36;100.00
50867;BME280;36839;51.946;21.002;2022-08-23T04:21:22;99884.41;;;18.40;100.00
50867;BME280;36839;51.946;21.002;2022-08-23T04:23:50;99881.61;;;18.40;100.00
50867;BME280;36839;51.946;21.002;2022-08-23T04:26:20;99881.61;;;18.40;100.00
50867;BME280;36839;51.946;21.002;2022-08-23T04:28:48;99886.87;;;18.41;100.00
50867;BME280;36839;51.946;21.002;2022-08-23T04:31:19;99886.05;;;18.41;100.00
50867;BME280;36839;51.946;21.002;2022-08-23T04:33:54;99883.83;;;18.40;100.00
50867;BME280;36839;51.946;21.002;2022-08-23T04:36:21;99883.83;;;18.40;100.00
50867;BME280;36839;51.946;21.002;2022-08-23T04:38:52;99887.50;;;18.47;100.00
50867;BME280;36839;51.946;21.002;2022-08-23T04:41:20;99887.59;;;18.53;100.00
50867;BME280;36839;51.946;21.002;2022-08-23T04:44:06;99891.20;;;18.53;100.00
50867;BME280;36839;51.946;21.002;2022-08-23T04:46:35;99891.20;;;18.53;100.00
50867;BME280;36839;51.946;21.002;2022-08-23T04:49:05;99903.94;;;18.57;100.00
50867;BME280;36839;51.946;21.002;2022-08-23T04:51:35;99900.73;;;18.61;100.00
50867;BME280;36839;51.946;21.002;2022-08-23T04:54:04;99901.47;;;18.64;100.00
50867;BME280;36839;51.946;21.002;2022-08-23T04:56:34;99902.25;;;18.67;100.00
50867;BME280;36839;51.946;21.002;2022-08-23T04:59:04;99905.67;;;18.73;100.00
50867;BME280;36839;51.946;21.002;2022-08-23T05:01:34;99892.59;;;18.79;100.00
50867;BME280;36839;51.946;21.002;2022-08-23T05:04:04;99892.59;;;18.79;100.00
50867;BME280;36839;51.946;21.002;2022-08-23T05:06:36;99895.36;;;18.88;100.00
50867;BME280;36839;51.946;21.002;2022-08-23T05:09:03;99908.58;;;18.94;100.00
50867;BME280;36839;51.946;21.002;2022-08-23T05:11:36;99903.22;;;18.95;100.00
50867;BME280;36839;51.946;21.002;2022-08-23T05:14:06;99909.89;;;19.05;100.00
50867;BME280;36839;51.946;21.002;2022-08-23T05:16:34;99920.78;;;19.12;100.00
50867;BME280;36839;51.946;21.002;2022-08-23T05:19:07;99920.78;;;19.12;100.00
50867;BME280;36839;51.946;21.002;2022-08-23T05:21:33;99924.72;;;19.20;100.00
50867;BME280;36839;51.946;21.002;2022-08-23T05:24:02;99929.09;;;19.24;100.00
50867;BME280;36839;51.946;21.002;2022-08-23T05:26:30;99928.06;;;19.28;100.00
50867;BME280;36839;51.946;21.002;2022-08-23T05:28:58;99928.06;;;19.28;100.00
50867;BME280;36839;51.946;21.002;2022-08-23T05:31:26;99932.30;;;19.43;100.00
50867;BME280;36839;51.946;21.002;2022-08-23T05:33:57;99929.77;;;19.50;100.00
50867;BME280;36839;51.946;21.002;2022-08-23T05:36:24;99929.77;;;19.50;100.00
50867;BME280;36839;51.946;21.002;2022-08-23T05:38:53;99932.97;;;19.63;100.00
50867;BME280;36839;51.946;21.002;2022-08-23T05:41:25;99932.97;;;19.63;100.00
50867;BME280;36839;51.946;21.002;2022-08-23T05:43:51;99941.40;;;19.69;100.00
50867;BME280;36839;51.946;21.002;2022-08-23T05:46:23;99946.03;;;19.80;100.00
50867;BME280;36839;51.946;21.002;2022-08-23T05:48:51;99951.45;;;19.85;100.00
50867;BME280;36839;51.946;21.002;2022-08-23T05:51:24;99951.45;;;19.85;100.00
50867;BME280;36839;51.946;21.002;2022-08-23T05:54:03;99957.78;;;19.88;100.00
50867;BME280;36839;51.946;21.002;2022-08-23T05:56:33;99963.62;;;19.89;100.00
50867;BME280;36839;51.946;21.002;2022-08-23T05:59:05;99963.55;;;19.92;100.00
50867;BME280;36839;51.946;21.002;2022-08-23T06:01:37;99963.55;;;19.92;100.00
50867;BME280;36839;51.946;21.002;2022-08-23T06:04:08;99974.20;;;19.98;100.00
50867;BME280;36839;51.946;21.002;2022-08-23T06:06:36;99971.66;;;20.00;100.00
50867;BME280;36839;51.946;21.002;2022-08-23T06:09:05;99966.72;;;19.96;100.00
50867;BME280;36839;51.946;21.002;2022-08-23T06:11:33;99971.22;;;20.04;100.00
50867;BME280;36839;51.946;21.002;2022-08-23T06:14:04;99971.22;;;20.04;100.00
50867;BME280;36839;51.946;21.002;2022-08-23T06:16:36;99975.73;;;20.17;100.00
50867;BME280;36839;51.946;21.002;2022-08-23T06:19:04;99975.73;;;20.17;100.00
50867;BME280;36839;51.946;21.002;2022-08-23T06:21:34;99976.91;;;20.37;100.00
50867;BME280;36839;51.946;21.002;2022-08-23T06:24:02;99977.21;;;20.44;100.00
50867;BME280;36839;51.946;21.002;2022-08-23T06:26:34;99977.21;;;20.44;100.00
50867;BME280;36839;51.946;21.002;2022-08-23T06:29:09;99981.81;;;20.48;100.00
50867;BME280;36839;51.946;21.002;2022-08-23T06:31:45;99983.39;;;20.58;100.00
50867;BME280;36839;51.946;21.002;2022-08-23T06:34:23;99989.58;;;20.58;100.00
50867;BME280;36839;51.946;21.002;2022-08-23T06:36:55;99979.92;;;20.73;100.00
50867;BME280;36839;51.946;21.002;2022-08-23T06:39:26;99981.56;;;20.68;100.00
50867;BME280;36839;51.946;21.002;2022-08-23T06:42:01;99981.56;;;20.68;100.00
50867;BME280;36839;51.946;21.002;2022-08-23T06:44:29;99987.45;;;20.81;100.00
50867;BME280;36839;51.946;21.002;2022-08-23T06:46:59;99983.98;;;20.91;100.00
50867;BME280;36839;51.946;21.002;2022-08-23T06:49:29;99983.98;;;20.91;100.00
50867;BME280;36839;51.946;21.002;2022-08-23T06:51:58;99996.41;;;21.02;100.00
50867;BME280;36839;51.946;21.002;2022-08-23T06:54:28;99987.91;;;21.04;100.00
50867;BME280;36839;51.946;21.002;2022-08-23T06:57:03;99987.47;;;21.15;100.00
50867;BME280;36839;51.946;21.002;2022-08-23T06:59:34;99993.42;;;21.19;100.00
50867;BME280;36839;51.946;21.002;2022-08-23T07:02:05;99993.42;;;21.19;100.00
50867;BME280;36839;51.946;21.002;2022-08-23T07:04:37;99989.16;;;21.28;100.00
50867;BME280;36839;51.946;21.002;2022-08-23T07:07:06;99978.41;;;21.36;100.00
50867;BME280;36839;51.946;21.002;2022-08-23T07:09:34;99978.41;;;21.36;100.00
50867;BME280;36839;51.946;21.002;2022-08-23T07:12:04;99985.80;;;21.47;100.00
50867;BME280;36839;51.946;21.002;2022-08-23T07:14:32;99991.67;;;21.66;100.00
50867;BME280;36839;51.946;21.002;2022-08-23T07:17:02;99993.42;;;21.64;100.00
50867;BME280;36839;51.946;21.002;2022-08-23T07:19:34;99993.42;;;21.64;100.00
50867;BME280;36839;51.946;21.002;2022-08-23T07:22:04;99995.55;;;21.80;100.00
50867;BME280;36839;51.946;21.002;2022-08-23T07:24:32;99995.55;;;21.80;100.00
50867;BME280;36839;51.946;21.002;2022-08-23T07:27:01;100000.23;;;21.94;100.00
50867;BME280;36839;51.946;21.002;2022-08-23T07:29:30;100004.23;;;22.11;100.00
50867;BME280;36839;51.946;21.002;2022-08-23T07:31:59;100004.11;;;22.20;100.00
50867;BME280;36839;51.946;21.002;2022-08-23T07:34:28;99998.59;;;22.30;100.00
50867;BME280;36839;51.946;21.002;2022-08-23T07:36:58;99995.41;;;22.37;100.00
50867;BME280;36839;51.946;21.002;2022-08-23T07:39:27;99999.73;;;22.47;100.00
50867;BME280;36839;51.946;21.002;2022-08-23T07:42:00;99996.69;;;22.40;100.00
50867;BME280;36839;51.946;21.002;2022-08-23T07:44:27;99999.60;;;22.43;100.00
50867;BME280;36839;51.946;21.002;2022-08-23T07:46:55;99996.78;;;22.49;100.00
50867;BME280;36839;51.946;21.002;2022-08-23T07:49:27;99996.78;;;22.49;100.00
50867;BME280;36839;51.946;21.002;2022-08-23T07:51:53;100002.01;;;22.63;100.00
50867;BME280;36839;51.946;21.002;2022-08-23T07:54:24;99994.15;;;22.63;100.00
50867;BME280;36839;51.946;21.002;2022-08-23T07:56:51;99995.55;;;22.69;100.00
50867;BME280;36839;51.946;21.002;2022-08-23T07:59:17;99995.55;;;22.69;100.00
50867;BME280;36839;51.946;21.002;2022-08-23T08:01:45;100005.41;;;22.69;100.00
50867;BME280;36839;51.946;21.002;2022-08-23T08:04:15;100009.17;;;22.67;100.00
50867;BME280;36839;51.946;21.002;2022-08-23T08:06:45;100009.17;;;22.67;100.00
50867;BME280;36839;51.946;21.002;2022-08-23T08:09:15;100010.54;;;22.73;100.00
50867;BME280;36839;51.946;21.002;2022-08-23T08:11:47;100010.54;;;22.73;100.00
50867;BME280;36839;51.946;21.002;2022-08-23T08:14:23;100001.38;;;22.88;100.00
50867;BME280;36839;51.946;21.002;2022-08-23T08:16:49;100001.83;;;22.90;100.00
50867;BME280;36839;51.946;21.002;2022-08-23T08:19:18;100004.35;;;23.01;100.00
50867;BME280;36839;51.946;21.002;2022-08-23T08:21:46;100003.37;;;23.09;100.00
50867;BME280;36839;51.946;21.002;2022-08-23T08:24:15;100006.55;;;23.14;100.00
50867;BME280;36839;51.946;21.002;2022-08-23T08:26:43;100012.70;;;23.26;100.00
50867;BME280;36839;51.946;21.002;2022-08-23T08:29:18;100001.26;;;23.34;100.00
50867;BME280;36839;51.946;21.002;2022-08-23T08:31:45;100007.77;;;23.45;100.00
50867;BME280;36839;51.946;21.002;2022-08-23T08:34:13;100008.19;;;23.53;100.00
50867;BME280;36839;51.946;21.002;2022-08-23T08:36:46;100010.13;;;23.64;100.00
50867;BME280;36839;51.946;21.002;2022-08-23T08:39:14;100010.13;;;23.64;100.00
50867;BME280;36839;51.946;21.002;2022-08-23T08:45:03;100007.09;;;23.79;100.00
50867;BME280;36839;51.946;21.002;2022-08-23T08:47:51;100002.53;;;23.75;100.00
50867;BME280;36839;51.946;21.002;2022-08-23T08:50:24;100002.30;;;23.74;100.00
50867;BME280;36839;51.946;21.002;2022-08-23T08:53:02;100000.64;;;23.79;100.00
50867;BME280;36839;51.946;21.002;2022-08-23T08:55:31;100000.64;;;23.79;100.00
50867;BME280;36839;51.946;21.002;2022-08-23T08:58:01;100005.43;;;23.94;100.00
50867;BME280;36839;51.946;21.002;2022-08-23T09:00:34;100015.07;;;24.09;100.00
50867;BME280;36839;51.946;21.002;2022-08-23T09:03:08;100015.07;;;24.09;100.00
50867;BME280;36839;51.946;21.002;2022-08-23T09:05:37;100019.36;;;24.28;100.00
50867;BME280;36839;51.946;21.002;2022-08-23T09:14:27;100008.91;;;24.64;100.00
50867;BME280;36839;51.946;21.002;2022-08-23T09:17:04;100014.78;;;24.74;100.00
50867;BME280;36839;51.946;21.002;2022-08-23T09:19:35;100010.55;;;24.84;100.00
50867;BME280;36839;51.946;21.002;2022-08-23T09:22:11;100007.84;;;24.91;100.00
50867;BME280;36839;51.946;21.002;2022-08-23T09:24:42;100007.94;;;24.95;100.00
50867;BME280;36839;51.946;21.002;2022-08-23T09:27:09;100009.57;;;24.96;100.00
50867;BME280;36839;51.946;21.002;2022-08-23T09:29:44;100011.61;;;25.05;100.00
50867;BME280;36839;51.946;21.002;2022-08-23T09:32:29;100010.84;;;25.18;100.00
50867;BME280;36839;51.946;21.002;2022-08-23T09:35:11;100005.98;;;25.28;100.00
50867;BME280;36839;51.946;21.002;2022-08-23T09:38:00;100005.98;;;25.28;100.00
50867;BME280;36839;51.946;21.002;2022-08-23T09:43:12;100006.84;;;25.51;100.00
50867;BME280;36839;51.946;21.002;2022-08-23T09:46:03;100007.70;;;25.55;100.00
50867;BME280;36839;51.946;21.002;2022-08-23T09:48:12;100005.39;;;25.71;100.00
50867;BME280;36839;51.946;21.002;2022-08-23T09:50:50;100008.67;;;25.86;99.00
50867;BME280;36839;51.946;21.002;2022-08-23T09:53:27;100000.77;;;26.08;98.62
50867;BME280;36839;51.946;21.002;2022-08-23T09:55:56;100000.23;;;26.26;99.11
50867;BME280;36839;51.946;21.002;2022-08-23T09:58:41;100006.05;;;26.50;99.34
50867;BME280;36839;51.946;21.002;2022-08-23T10:01:22;99994.75;;;26.53;96.13
50867;BME280;36839;51.946;21.002;2022-08-23T10:03:59;99999.39;;;26.65;96.06
50867;BME280;36839;51.946;21.002;2022-08-23T10:06:27;100003.30;;;26.87;97.01
50867;BME280;36839;51.946;21.002;2022-08-23T10:08:54;100003.30;;;26.87;97.01
50867;BME280;36839;51.946;21.002;2022-08-23T10:11:31;99996.59;;;27.15;91.04
50867;BME280;36839;51.946;21.002;2022-08-23T10:13:59;99996.59;;;27.15;91.04
50867;BME280;36839;51.946;21.002;2022-08-23T10:16:51;99990.80;;;27.21;90.69
50867;BME280;36839;51.946;21.002;2022-08-23T10:25:01;99990.82;;;28.13;79.95
50867;BME280;36839;51.946;21.002;2022-08-23T10:27:36;99990.82;;;28.13;79.95
50867;BME280;36839;51.946;21.002;2022-08-23T10:30:25;99998.64;;;28.58;79.26
50867;BME280;36839;51.946;21.002;2022-08-23T10:35:27;99984.77;;;28.88;77.92
50867;BME280;36839;51.946;21.002;2022-08-23T10:44:03;99982.48;;;29.22;74.35
50867;BME280;36839;51.946;21.002;2022-08-23T10:46:29;99982.89;;;29.27;72.89
50867;BME280;36839;51.946;21.002;2022-08-23T10:49:00;99976.02;;;29.39;73.54
50867;BME280;36839;51.946;21.002;2022-08-23T10:51:31;99982.92;;;29.45;70.33
50867;BME280;36839;51.946;21.002;2022-08-23T10:54:07;99983.19;;;29.61;75.53
50867;BME280;36839;51.946;21.002;2022-08-23T10:56:38;99977.72;;;29.76;74.13
50867;BME280;36839;51.946;21.002;2022-08-23T10:59:19;99984.80;;;29.94;68.79
50867;BME280;36839;51.946;21.002;2022-08-23T11:02:17;99982.39;;;30.10;67.44
50867;BME280;36839;51.946;21.002;2022-08-23T11:07:30;99984.98;;;30.37;66.52
50867;BME280;36839;51.946;21.002;2022-08-23T11:13:23;99984.38;;;30.38;66.80
50867;BME280;36839;51.946;21.002;2022-08-23T11:18:08;99981.55;;;30.27;62.73
50867;BME280;36839;51.946;21.002;2022-08-23T11:28:51;99985.30;;;30.82;62.46
50867;BME280;36839;51.946;21.002;2022-08-23T11:31:24;99986.22;;;30.98;61.62
50867;BME280;36839;51.946;21.002;2022-08-23T11:36:26;99983.64;;;30.85;61.95
50867;BME280;36839;51.946;21.002;2022-08-23T11:41:30;99992.31;;;30.38;62.30
50867;BME280;36839;51.946;21.002;2022-08-23T11:46:47;99988.88;;;30.00;64.65
50867;BME280;36839;51.946;21.002;2022-08-23T11:49:21;99994.80;;;29.86;64.76
50867;BME280;36839;51.946;21.002;2022-08-23T12:03:08;99976.27;;;30.33;62.87
50867;BME280;36839;51.946;21.002;2022-08-23T12:05:41;99979.34;;;30.88;62.43
50867;BME280;36839;51.946;21.002;2022-08-23T12:21:41;99976.25;;;31.68;57.27
50867;BME280;36839;51.946;21.002;2022-08-23T12:24:17;99981.49;;;31.73;54.72
50867;BME280;36839;51.946;21.002;2022-08-23T12:29:48;99976.06;;;31.63;55.97
50867;BME280;36839;51.946;21.002;2022-08-23T12:35:08;99972.44;;;31.59;55.92
50867;BME280;36839;51.946;21.002;2022-08-23T12:38:11;99969.48;;;31.44;54.47
50867;BME280;36839;51.946;21.002;2022-08-23T12:40:15;99969.48;;;31.44;54.47
50867;BME280;36839;51.946;21.002;2022-08-23T12:42:42;99962.67;;;31.57;52.41
50867;BME280;36839;51.946;21.002;2022-08-23T12:45:15;99961.78;;;31.63;52.20
50867;BME280;36839;51.946;21.002;2022-08-23T12:47:46;99962.97;;;31.69;54.21
50867;BME280;36839;51.946;21.002;2022-08-23T12:50:29;99962.97;;;31.69;54.21
50867;BME280;36839;51.946;21.002;2022-08-23T12:53:01;99954.35;;;31.50;53.39
50867;BME280;36839;51.946;21.002;2022-08-23T12:55:32;99955.88;;;31.62;52.95
50867;BME280;36839;51.946;21.002;2022-08-23T12:57:59;99956.88;;;31.67;52.34
50867;BME280;36839;51.946;21.002;2022-08-23T13:00:41;99952.06;;;31.83;53.02
50867;BME280;36839;51.946;21.002;2022-08-23T13:03:15;99952.06;;;31.83;53.02
50867;BME280;36839;51.946;21.002;2022-08-23T13:05:57;99957.08;;;31.94;49.64
50867;BME280;36839;51.946;21.002;2022-08-23T13:08:29;99947.36;;;32.07;50.12
50867;BME280;36839;51.946;21.002;2022-08-23T13:10:55;99945.63;;;32.17;49.76
50867;BME280;36839;51.946;21.002;2022-08-23T13:13:29;99943.72;;;32.22;48.41
50867;BME280;36839;51.946;21.002;2022-08-23T13:16:02;99943.72;;;32.22;48.41
50867;BME280;36839;51.946;21.002;2022-08-23T13:18:40;99942.75;;;31.98;48.71
50867;BME280;36839;51.946;21.002;2022-08-23T13:21:17;99938.03;;;32.03;50.16
50867;BME280;36839;51.946;21.002;2022-08-23T13:23:44;99938.03;;;32.03;50.16
50867;BME280;36839;51.946;21.002;2022-08-23T13:29:19;99921.98;;;32.35;49.12
50867;BME280;36839;51.946;21.002;2022-08-23T13:31:57;99913.63;;;32.51;47.15
50867;BME280;36839;51.946;21.002;2022-08-23T13:34:43;99907.66;;;32.69;47.78
50867;BME280;36839;51.946;21.002;2022-08-23T13:37:22;99898.70;;;32.67;46.14
50867;BME280;36839;51.946;21.002;2022-08-23T13:39:51;99898.70;;;32.67;46.14
50867;BME280;36839;51.946;21.002;2022-08-23T13:42:35;99906.67;;;32.52;46.45
50867;BME280;36839;51.946;21.002;2022-08-23T13:45:24;99906.67;;;32.52;46.45
50867;BME280;36839;51.946;21.002;2022-08-23T13:47:52;99917.30;;;32.52;47.32
50867;BME280;36839;51.946;21.002;2022-08-23T13:50:27;99917.30;;;32.52;47.32
50867;BME280;36839;51.946;21.002;2022-08-23T13:52:56;99940.34;;;32.15;47.07
50867;BME280;36839;51.946;21.002;2022-08-23T13:55:26;99944.66;;;32.34;47.45
50867;BME280;36839;51.946;21.002;2022-08-23T13:57:56;99944.59;;;32.56;47.54
50867;BME280;36839;51.946;21.002;2022-08-23T14:00:26;99944.59;;;32.56;47.54
50867;BME280;36839;51.946;21.002;2022-08-23T14:02:55;99951.34;;;32.73;49.85
50867;BME280;36839;51.946;21.002;2022-08-23T14:05:21;99937.40;;;32.94;46.69
50867;BME280;36839;51.946;21.002;2022-08-23T14:07:50;99945.42;;;32.91;46.30
50867;BME280;36839;51.946;21.002;2022-08-23T14:10:20;99940.13;;;32.89;44.94
50867;BME280;36839;51.946;21.002;2022-08-23T14:12:49;99940.13;;;32.89;44.94
50867;BME280;36839;51.946;21.002;2022-08-23T14:15:23;99949.68;;;33.21;45.79
50867;BME280;36839;51.946;21.002;2022-08-23T14:17:55;99947.20;;;33.39;44.85
50867;BME280;36839;51.946;21.002;2022-08-23T14:20:26;99949.90;;;33.49;43.42
50867;BME280;36839;51.946;21.002;2022-08-23T14:22:55;99953.80;;;33.74;43.91
50867;BME280;36839;51.946;21.002;2022-08-23T14:25:23;99952.31;;;33.90;43.29
50867;BME280;36839;51.946;21.002;2022-08-23T14:27:50;99947.91;;;33.97;43.62
50867;BME280;36839;51.946;21.002;2022-08-23T14:30:31;99946.39;;;34.00;43.30